Time;durP1;ratioP1;P1;durP2;ratioP2;P2;SDS_P1;SDS_P2;PMS_P1;PMS_P2;Temp;Humidity;BMP_temperature;BMP_pressure;BME280_temperature;BME280_humidity;BME280_pressure;Samples;Min_cycle;Max_cycle;Signal;HPM_P1;HPM_P2
2023/02/04 00:01:04;;;;;;;16.43;6.33;;;;;;;;;;4944697;28;20459;-76
2023/02/04 00:03:30;;;;;;;7.97;3.47;;;;;;;;;;4955609;28;20493;-77
2023/02/04 00:05:56;;;;;;;20.80;3.57;;;;;;;;;;4941650;28;20455;-77
2023/02/04 00:08:22;;;;;;;9.27;3.87;;;;;;;;;;4954984;28;20433;-76
2023/02/04 00:10:48;;;;;;;19.10;4.80;;;;;;;;;;4949634;28;20500;-77
2023/02/04 00:13:14;;;;;;;14.63;3.70;;;;;;;;;;4931335;28;20474;-77
2023/02/04 00:15:40;;;;;;;11.00;3.50;;;;;;;;;;4954979;28;20786;-75
2023/02/04 00:18:06;;;;;;;11.77;3.93;;;;;;;;;;4954728;28;20426;-77
2023/02/04 00:20:33;;;;;;;21.93;3.93;;;;;;;;;;4949999;28;20988;-76
2023/02/04 00:22:59;;;;;;;15.70;5.33;;;;;;;;;;4950267;28;20964;-76
2023/02/04 00:25:25;;;;;;;8.63;3.33;;;;;;;;;;4956349;28;20449;-77
2023/02/04 00:27:51;;;;;;;10.33;4.33;;;;;;;;;;4947123;28;20421;-76
2023/02/04 00:30:17;;;;;;;16.07;3.70;;;;;;;;;;4933334;28;20669;-77
2023/02/04 00:32:43;;;;;;;21.20;5.27;;;;;;;;;;4949937;28;20454;-75
2023/02/04 00:35:09;;;;;;;14.10;3.60;;;;;;;;;;4954905;28;20464;-77
2023/02/04 00:37:35;;;;;;;18.35;4.32;;;;;;;;;;4941586;29;20469;-75
2023/02/04 00:40:01;;;;;;;13.57;4.87;;;;;;;;;;4949638;28;20214;-77
2023/02/04 00:42:27;;;;;;;9.00;2.90;;;;;;;;;;4954393;28;20422;-76
2023/02/04 00:44:53;;;;;;;11.17;3.40;;;;;;;;;;4955967;28;21075;-76
2023/02/04 00:47:19;;;;;;;17.33;6.60;;;;;;;;;;4951570;28;20422;-77
2023/02/04 00:49:45;;;;;;;16.60;4.73;;;;;;;;;;4936304;28;20462;-76
2023/02/04 00:52:14;;;;;;;11.53;4.83;;;;;;;;;;4937319;28;20470;-75
2023/02/04 00:54:40;;;;;;;9.90;3.83;;;;;;;;;;4940186;29;21024;-77
2023/02/04 00:57:06;;;;;;;13.50;4.53;;;;;;;;;;4949320;28;20517;-76
2023/02/04 00:59:32;;;;;;;12.60;3.40;;;;;;;;;;4929730;29;20861;-77
2023/02/04 01:01:59;;;;;;;12.80;3.77;;;;;;;;;;4933226;28;20462;-76
2023/02/04 01:04:26;;;;;;;15.37;4.53;;;;;;;;;;4955958;28;20414;-76
2023/02/04 01:06:52;;;;;;;15.00;3.73;;;;;;;;;;4944740;28;20988;-77
2023/02/04 01:09:18;;;;;;;14.27;5.93;;;;;;;;;;4960493;28;20434;-75
2023/02/04 01:11:44;;;;;;;16.40;4.03;;;;;;;;;;4966646;28;20525;-76
2023/02/04 01:14:10;;;;;;;15.87;3.80;;;;;;;;;;4958978;28;20624;-76
2023/02/04 01:16:36;;;;;;;19.10;3.37;;;;;;;;;;4938035;29;20461;-76
2023/02/04 01:19:02;;;;;;;14.73;3.53;;;;;;;;;;4937531;29;20445;-77
2023/02/04 01:21:28;;;;;;;9.93;3.70;;;;;;;;;;4955548;28;20548;-76
2023/02/04 01:23:57;;;;;;;16.70;4.07;;;;;;;;;;4950139;29;21062;-76
2023/02/04 01:26:23;;;;;;;10.83;3.93;;;;;;;;;;4966137;28;20453;-75
2023/02/04 01:28:49;;;;;;;22.87;4.27;;;;;;;;;;4933296;29;20434;-77
2023/02/04 01:31:16;;;;;;;18.13;4.00;;;;;;;;;;4965188;28;20531;-76
2023/02/04 01:33:42;;;;;;;16.80;3.67;;;;;;;;;;4950175;28;20859;-76
2023/02/04 01:36:08;;;;;;;11.20;3.23;;;;;;;;;;4964924;28;20536;-76
2023/02/04 01:38:34;;;;;;;16.23;4.47;;;;;;;;;;4949946;28;20448;-76
2023/02/04 01:41:00;;;;;;;26.50;3.80;;;;;;;;;;4964413;28;20819;-77
2023/02/04 01:43:26;;;;;;;13.80;5.00;;;;;;;;;;4950434;28;20457;-77
2023/02/04 01:45:52;;;;;;;24.60;4.37;;;;;;;;;;4965965;28;20444;-76
2023/02/04 01:48:20;;;;;;;14.53;6.37;;;;;;;;;;4950394;28;20422;-77
2023/02/04 01:50:47;;;;;;;11.30;3.40;;;;;;;;;;4963339;28;20433;-76
2023/02/04 01:53:13;;;;;;;18.47;4.63;;;;;;;;;;4949741;28;20470;-76
2023/02/04 01:55:39;;;;;;;14.83;3.80;;;;;;;;;;4959151;28;20717;-76
2023/02/04 01:58:05;;;;;;;9.90;3.80;;;;;;;;;;4949261;29;20430;-76
2023/02/04 02:00:32;;;;;;;19.50;4.77;;;;;;;;;;4962240;28;20559;-77
2023/02/04 02:02:58;;;;;;;16.80;4.30;;;;;;;;;;4953538;28;20413;-76
2023/02/04 02:05:24;;;;;;;16.93;4.93;;;;;;;;;;4960536;28;20549;-77
2023/02/04 02:07:51;;;;;;;13.57;4.77;;;;;;;;;;4952057;28;20923;-76
2023/02/04 02:10:18;;;;;;;23.63;4.37;;;;;;;;;;4941756;28;20452;-76
2023/02/04 02:12:44;;;;;;;11.03;4.30;;;;;;;;;;4948856;29;20470;-76
2023/02/04 02:15:11;;;;;;;21.47;3.70;;;;;;;;;;4949518;28;20473;-77
2023/02/04 02:17:39;;;;;;;18.70;4.90;;;;;;;;;;4938395;29;20466;-76
2023/02/04 02:20:06;;;;;;;9.30;3.27;;;;;;;;;;4933422;28;20470;-74
2023/02/04 02:22:41;;;;;;;23.53;4.23;;;;;;;;;;4949930;28;21055;-74
2023/02/04 02:25:09;;;;;;;18.20;5.27;;;;;;;;;;4940928;28;20467;-76
2023/02/04 02:27:35;;;;;;;18.50;4.23;;;;;;;;;;4948699;29;20418;-76
2023/02/04 02:30:01;;;;;;;12.23;4.70;;;;;;;;;;4930866;28;20434;-76
2023/02/04 02:32:28;;;;;;;12.07;3.30;;;;;;;;;;4958655;28;20565;-75
2023/02/04 02:34:54;;;;;;;16.13;4.47;;;;;;;;;;4958656;28;20442;-76
2023/02/04 02:37:20;;;;;;;18.27;4.87;;;;;;;;;;4937833;29;20411;-75
2023/02/04 02:39:46;;;;;;;22.47;5.87;;;;;;;;;;4949162;28;20521;-76
2023/02/04 02:42:14;;;;;;;12.30;4.37;;;;;;;;;;4954292;28;20481;-75
2023/02/04 02:44:41;;;;;;;13.47;3.70;;;;;;;;;;4966064;28;21122;-75
2023/02/04 02:47:11;;;;;;;20.20;4.00;;;;;;;;;;4940396;29;20441;-76
2023/02/04 02:49:38;;;;;;;18.07;4.40;;;;;;;;;;4945689;29;20420;-75
2023/02/04 02:52:04;;;;;;;19.90;4.00;;;;;;;;;;4953091;28;20537;-75
2023/02/04 02:54:31;;;;;;;13.93;3.77;;;;;;;;;;4932675;29;20477;-76
2023/02/04 02:56:58;;;;;;;23.47;4.77;;;;;;;;;;4950642;28;20445;-75
2023/02/04 02:59:24;;;;;;;20.37;4.53;;;;;;;;;;4938873;29;20457;-75
2023/02/04 03:01:56;;;;;;;5.83;3.43;;;;;;;;;;4945153;28;20933;-75
2023/02/04 03:04:23;;;;;;;11.60;4.20;;;;;;;;;;4952329;28;20446;-76
2023/02/04 03:06:50;;;;;;;15.53;4.20;;;;;;;;;;4942980;28;20446;-75
2023/02/04 03:09:19;;;;;;;23.97;5.37;;;;;;;;;;4946776;28;20701;-76
2023/02/04 03:11:45;;;;;;;7.37;3.40;;;;;;;;;;4949161;28;20493;-76
2023/02/04 03:14:11;;;;;;;12.53;4.10;;;;;;;;;;4957444;28;20473;-75
2023/02/04 03:16:39;;;;;;;15.47;3.57;;;;;;;;;;4958153;28;20470;-76
2023/02/04 03:19:06;;;;;;;13.90;3.73;;;;;;;;;;4953976;28;20679;-75
2023/02/04 03:21:32;;;;;;;15.50;4.30;;;;;;;;;;4954329;28;20449;-75
2023/02/04 03:23:58;;;;;;;18.50;5.70;;;;;;;;;;4948614;28;20497;-75
2023/02/04 03:26:25;;;;;;;20.60;4.90;;;;;;;;;;4957594;28;20961;-76
2023/02/04 03:28:52;;;;;;;18.90;4.37;;;;;;;;;;4953601;28;20445;-76
2023/02/04 03:31:18;;;;;;;15.97;4.77;;;;;;;;;;4955495;28;20647;-75
2023/02/04 03:33:44;;;;;;;16.90;4.17;;;;;;;;;;4951940;28;20477;-76
2023/02/04 03:36:10;;;;;;;17.27;3.30;;;;;;;;;;4932844;29;20445;-76
2023/02/04 03:38:40;;;;;;;13.20;3.00;;;;;;;;;;4935526;29;20501;-76
2023/02/04 03:41:06;;;;;;;12.47;3.80;;;;;;;;;;4955660;28;20972;-76
2023/02/04 03:43:34;;;;;;;12.80;3.30;;;;;;;;;;4952747;28;20434;-76
2023/02/04 03:46:00;;;;;;;14.77;3.30;;;;;;;;;;4962763;28;20500;-76
2023/02/04 03:48:26;;;;;;;12.30;3.17;;;;;;;;;;4935677;28;20810;-75
2023/02/04 03:50:52;;;;;;;16.83;3.60;;;;;;;;;;4954320;28;20441;-76
2023/02/04 03:53:18;;;;;;;16.40;2.90;;;;;;;;;;4947049;29;20591;-76
2023/02/04 03:55:44;;;;;;;23.43;6.27;;;;;;;;;;4949658;28;20505;-75
2023/02/04 03:58:10;;;;;;;14.07;3.67;;;;;;;;;;4947524;29;20430;-75
2023/02/04 04:00:36;;;;;;;18.33;3.33;;;;;;;;;;4949716;28;20813;-76
2023/02/04 04:03:02;;;;;;;17.33;3.60;;;;;;;;;;4954285;28;20544;-76
2023/02/04 04:05:28;;;;;;;23.63;5.47;;;;;;;;;;4961605;28;20805;-76
2023/02/04 04:07:54;;;;;;;20.20;4.40;;;;;;;;;;4946486;28;20441;-76
2023/02/04 04:10:20;;;;;;;25.17;6.03;;;;;;;;;;4957347;28;20584;-75
2023/02/04 04:12:46;;;;;;;35.97;5.70;;;;;;;;;;4935818;28;20565;-75
2023/02/04 04:15:12;;;;;;;10.20;3.23;;;;;;;;;;4946424;28;20446;-75
2023/02/04 04:17:38;;;;;;;12.33;4.10;;;;;;;;;;4948187;28;20430;-76
2023/02/04 04:20:04;;;;;;;25.97;5.17;;;;;;;;;;4950944;28;20439;-77
2023/02/04 04:22:30;;;;;;;18.90;4.50;;;;;;;;;;4939529;28;20879;-75
2023/02/04 04:24:56;;;;;;;19.23;4.43;;;;;;;;;;4951870;28;20808;-76
2023/02/04 04:27:22;;;;;;;21.73;5.03;;;;;;;;;;4939589;28;20439;-76
2023/02/04 04:29:48;;;;;;;13.60;3.57;;;;;;;;;;4934683;29;20435;-76
2023/02/04 04:32:14;;;;;;;25.67;4.60;;;;;;;;;;4950101;28;20509;-76
2023/02/04 04:34:40;;;;;;;15.37;4.10;;;;;;;;;;4957416;28;20938;-77
2023/02/04 04:37:06;;;;;;;17.23;3.70;;;;;;;;;;4948731;28;20461;-77
2023/02/04 04:39:32;;;;;;;16.97;3.63;;;;;;;;;;4955807;28;20981;-76
2023/02/04 04:41:58;;;;;;;14.67;3.40;;;;;;;;;;4951162;28;20816;-75
2023/02/04 04:44:24;;;;;;;13.40;3.90;;;;;;;;;;4959617;28;20465;-76
2023/02/04 04:46:51;;;;;;;21.43;4.77;;;;;;;;;;4926642;29;20446;-76
2023/02/04 04:49:17;;;;;;;17.23;4.37;;;;;;;;;;4929671;29;20471;-76
2023/02/04 04:51:43;;;;;;;16.53;3.37;;;;;;;;;;4941125;28;20442;-76
2023/02/04 04:54:09;;;;;;;20.40;5.03;;;;;;;;;;4955455;28;20465;-77
2023/02/04 04:56:35;;;;;;;19.23;3.00;;;;;;;;;;4945701;28;20441;-77
2023/02/04 04:59:02;;;;;;;18.40;4.40;;;;;;;;;;4952984;28;21081;-76
2023/02/04 05:01:28;;;;;;;13.20;4.17;;;;;;;;;;4939922;28;20434;-76
2023/02/04 05:03:54;;;;;;;20.27;3.50;;;;;;;;;;4950744;28;20488;-76
2023/02/04 05:06:24;;;;;;;26.27;4.17;;;;;;;;;;4950299;28;20441;-75
2023/02/04 05:08:50;;;;;;;15.70;3.80;;;;;;;;;;4937652;29;20434;-76
2023/02/04 05:11:17;;;;;;;22.67;3.27;;;;;;;;;;4955484;28;20576;-76
2023/02/04 05:13:43;;;;;;;20.73;4.80;;;;;;;;;;4929376;29;21172;-76
2023/02/04 05:16:11;;;;;;;9.83;3.33;;;;;;;;;;4961600;28;20441;-76
2023/02/04 05:18:37;;;;;;;10.77;3.40;;;;;;;;;;4934349;28;20449;-76
2023/02/04 05:21:03;;;;;;;25.80;4.50;;;;;;;;;;4952772;28;20671;-77
2023/02/04 05:23:29;;;;;;;31.13;4.60;;;;;;;;;;4945847;29;20527;-76
2023/02/04 05:25:55;;;;;;;14.70;4.07;;;;;;;;;;4960118;28;20460;-76
2023/02/04 05:28:21;;;;;;;10.50;2.97;;;;;;;;;;4938558;28;20486;-76
2023/02/04 05:30:47;;;;;;;23.10;4.47;;;;;;;;;;4956461;28;20804;-76
2023/02/04 05:33:13;;;;;;;15.97;3.83;;;;;;;;;;4934230;28;20553;-76
2023/02/04 05:35:39;;;;;;;17.73;4.13;;;;;;;;;;4948631;28;20446;-76
2023/02/04 05:38:05;;;;;;;13.97;4.40;;;;;;;;;;4928806;29;20430;-76
2023/02/04 05:40:31;;;;;;;16.50;3.00;;;;;;;;;;4952584;28;20617;-76
2023/02/04 05:42:57;;;;;;;9.10;3.70;;;;;;;;;;4956089;28;20525;-76
2023/02/04 05:45:23;;;;;;;16.87;4.10;;;;;;;;;;4939002;28;20461;-76
2023/02/04 05:47:49;;;;;;;16.90;4.77;;;;;;;;;;4931218;29;20830;-76
2023/02/04 05:50:15;;;;;;;21.97;4.53;;;;;;;;;;4950554;28;20450;-76
2023/02/04 05:52:41;;;;;;;17.63;4.10;;;;;;;;;;4938470;29;20466;-76
2023/02/04 05:55:09;;;;;;;27.80;4.90;;;;;;;;;;4949108;28;20460;-76
2023/02/04 05:57:35;;;;;;;22.43;5.23;;;;;;;;;;4955942;28;20418;-76
2023/02/04 06:00:02;;;;;;;23.90;5.97;;;;;;;;;;4958027;28;20771;-75
2023/02/04 06:02:28;;;;;;;22.80;5.33;;;;;;;;;;4948798;29;20905;-76
2023/02/04 06:04:53;;;;;;;26.90;4.47;;;;;;;;;;4956121;28;20483;-76
2023/02/04 06:07:19;;;;;;;15.83;4.10;;;;;;;;;;4948699;28;20442;-76
2023/02/04 06:09:45;;;;;;;19.80;5.07;;;;;;;;;;4948211;28;20956;-76
2023/02/04 06:12:11;;;;;;;21.83;5.77;;;;;;;;;;4937402;28;20434;-76
2023/02/04 06:14:37;;;;;;;18.27;3.70;;;;;;;;;;4936540;29;20434;-76
2023/02/04 06:17:03;;;;;;;8.60;3.33;;;;;;;;;;4952915;28;20448;-75
2023/02/04 06:19:29;;;;;;;21.60;4.30;;;;;;;;;;4934614;29;20503;-76
2023/02/04 06:21:55;;;;;;;15.27;3.93;;;;;;;;;;4931373;29;21021;-77
2023/02/04 06:24:21;;;;;;;16.23;4.20;;;;;;;;;;4952065;28;20434;-76
2023/02/04 06:26:47;;;;;;;7.43;3.20;;;;;;;;;;4949680;28;20886;-76
2023/02/04 06:29:13;;;;;;;16.10;3.87;;;;;;;;;;4939191;29;20442;-75
2023/02/04 06:31:39;;;;;;;20.60;5.20;;;;;;;;;;4945920;28;20801;-76
2023/02/04 06:34:06;;;;;;;19.53;4.37;;;;;;;;;;4956146;28;20476;-75
2023/02/04 06:36:33;;;;;;;16.67;5.27;;;;;;;;;;4942428;29;20502;-76
2023/02/04 06:38:59;;;;;;;16.23;3.67;;;;;;;;;;4959925;28;20430;-75
2023/02/04 06:41:25;;;;;;;7.40;3.47;;;;;;;;;;4950588;28;20484;-76
2023/02/04 06:43:51;;;;;;;14.23;4.70;;;;;;;;;;4954943;28;20521;-76
2023/02/04 06:46:17;;;;;;;17.37;4.60;;;;;;;;;;4962587;28;20448;-76
2023/02/04 06:48:43;;;;;;;20.10;4.00;;;;;;;;;;4959435;28;20916;-76
2023/02/04 06:51:08;;;;;;;14.83;4.03;;;;;;;;;;4953715;28;20486;-77
2023/02/04 06:53:34;;;;;;;22.17;4.13;;;;;;;;;;4962616;28;20862;-75
2023/02/04 06:56:00;;;;;;;20.17;5.33;;;;;;;;;;4947334;28;20446;-76
2023/02/04 06:58:26;;;;;;;22.63;4.83;;;;;;;;;;4944333;29;20439;-76
2023/02/04 07:00:53;;;;;;;16.40;3.83;;;;;;;;;;4960583;28;20432;-76
2023/02/04 07:03:19;;;;;;;14.20;3.70;;;;;;;;;;4949009;28;20889;-76
2023/02/04 07:05:44;;;;;;;18.47;5.10;;;;;;;;;;4953388;28;20826;-76
2023/02/04 07:08:10;;;;;;;16.90;5.23;;;;;;;;;;4952331;28;20430;-76
2023/02/04 07:10:36;;;;;;;11.93;4.33;;;;;;;;;;4956509;28;20807;-76
2023/02/04 07:13:02;;;;;;;20.00;5.10;;;;;;;;;;4931950;29;20469;-77
2023/02/04 07:15:29;;;;;;;17.37;5.33;;;;;;;;;;4939309;28;20944;-77
2023/02/04 07:17:55;;;;;;;13.43;4.63;;;;;;;;;;4956367;28;20423;-76
2023/02/04 07:20:21;;;;;;;18.23;4.60;;;;;;;;;;4945925;28;20432;-77
2023/02/04 07:22:47;;;;;;;19.10;4.20;;;;;;;;;;4935305;29;20445;-76
2023/02/04 07:25:16;;;;;;;12.73;3.40;;;;;;;;;;4956955;28;20437;-76
2023/02/04 07:27:42;;;;;;;22.30;4.73;;;;;;;;;;4936308;28;20450;-75
2023/02/04 07:30:09;;;;;;;18.77;5.80;;;;;;;;;;4935856;29;20414;-77
2023/02/04 07:32:35;;;;;;;28.40;5.77;;;;;;;;;;4953772;28;20529;-78
2023/02/04 07:35:01;;;;;;;31.03;5.23;;;;;;;;;;4949820;28;20446;-76
2023/02/04 07:37:27;;;;;;;17.33;4.70;;;;;;;;;;4942625;28;20993;-76
2023/02/04 07:39:53;;;;;;;23.57;4.37;;;;;;;;;;4953471;28;20441;-76
2023/02/04 07:42:19;;;;;;;22.67;3.80;;;;;;;;;;4948632;28;21020;-77
2023/02/04 07:44:45;;;;;;;14.53;3.57;;;;;;;;;;4948475;28;20465;-75
2023/02/04 07:47:11;;;;;;;21.20;4.13;;;;;;;;;;4951460;28;20450;-75
2023/02/04 07:49:37;;;;;;;9.47;4.20;;;;;;;;;;4948530;28;21009;-77
2023/02/04 07:52:03;;;;;;;12.23;4.40;;;;;;;;;;4951315;28;20464;-76
2023/02/04 07:54:29;;;;;;;17.63;4.70;;;;;;;;;;4947858;28;20937;-77
2023/02/04 07:56:55;;;;;;;20.00;6.93;;;;;;;;;;4945243;28;20446;-76
2023/02/04 07:59:21;;;;;;;21.43;7.30;;;;;;;;;;4947944;28;20430;-75
2023/02/04 08:01:48;;;;;;;16.60;5.07;;;;;;;;;;4943893;28;20534;-75
2023/02/04 08:04:14;;;;;;;15.73;4.77;;;;;;;;;;4947293;28;20934;-76
2023/02/04 08:06:40;;;;;;;19.17;4.53;;;;;;;;;;4944608;28;20438;-75
2023/02/04 08:09:06;;;;;;;17.50;5.00;;;;;;;;;;4948745;28;21436;-75
2023/02/04 08:11:32;;;;;;;24.17;4.60;;;;;;;;;;4940632;28;20689;-75
2023/02/04 08:13:58;;;;;;;15.13;4.43;;;;;;;;;;4949493;28;20784;-76
2023/02/04 08:16:27;;;;;;;9.13;4.10;;;;;;;;;;4944778;28;20433;-78
2023/02/04 08:18:53;;;;;;;17.83;4.57;;;;;;;;;;4948817;28;20501;-75
2023/02/04 08:21:19;;;;;;;16.53;4.37;;;;;;;;;;4944375;28;20478;-75
2023/02/04 08:23:45;;;;;;;15.83;4.50;;;;;;;;;;4946350;29;20458;-75
2023/02/04 08:26:11;;;;;;;12.50;4.60;;;;;;;;;;4925592;29;20449;-75
2023/02/04 08:28:38;;;;;;;26.37;3.43;;;;;;;;;;4937413;28;20620;-75
2023/02/04 08:31:05;;;;;;;24.40;5.53;;;;;;;;;;4941943;28;20902;-75
2023/02/04 08:33:31;;;;;;;12.53;4.07;;;;;;;;;;4943245;28;20478;-75
2023/02/04 08:35:57;;;;;;;28.73;4.63;;;;;;;;;;4941875;28;20442;-76
2023/02/04 08:38:23;;;;;;;18.53;5.37;;;;;;;;;;4930513;28;20419;-75
2023/02/04 08:40:51;;;;;;;10.67;3.70;;;;;;;;;;4949924;28;20946;-76
2023/02/04 08:43:17;;;;;;;14.67;4.37;;;;;;;;;;4951234;28;20445;-75
2023/02/04 08:45:43;;;;;;;15.40;5.50;;;;;;;;;;4944413;28;20452;-75
2023/02/04 08:48:09;;;;;;;15.40;4.40;;;;;;;;;;4950379;28;20440;-75
2023/02/04 08:50:35;;;;;;;15.60;4.00;;;;;;;;;;4945389;28;20796;-75
2023/02/04 08:53:01;;;;;;;19.53;5.60;;;;;;;;;;4949134;28;20568;-76
2023/02/04 08:55:27;;;;;;;18.50;5.83;;;;;;;;;;4947672;28;20497;-75
2023/02/04 08:57:53;;;;;;;23.07;5.60;;;;;;;;;;4947214;29;20410;-76
2023/02/04 09:00:19;;;;;;;16.47;6.10;;;;;;;;;;4951364;28;20442;-75
2023/02/04 09:02:45;;;;;;;15.17;4.43;;;;;;;;;;4945969;28;20898;-75
2023/02/04 09:05:11;;;;;;;20.83;4.80;;;;;;;;;;4948120;28;20473;-75
2023/02/04 09:07:37;;;;;;;18.30;5.20;;;;;;;;;;4946756;28;20473;-75
2023/02/04 09:10:03;;;;;;;17.77;4.60;;;;;;;;;;4940052;28;20451;-74
2023/02/04 09:12:29;;;;;;;13.60;4.80;;;;;;;;;;4929092;29;20973;-76
2023/02/04 09:14:55;;;;;;;24.27;5.67;;;;;;;;;;4952929;28;20516;-76
2023/02/04 09:17:21;;;;;;;8.67;3.83;;;;;;;;;;4951387;28;20785;-75
2023/02/04 09:19:47;;;;;;;10.97;4.80;;;;;;;;;;4942829;28;20440;-76
2023/02/04 09:22:14;;;;;;;10.07;3.83;;;;;;;;;;4944974;28;20540;-76
2023/02/04 09:24:40;;;;;;;19.10;5.10;;;;;;;;;;4952412;28;20429;-76
2023/02/04 09:27:06;;;;;;;20.57;5.27;;;;;;;;;;4943056;28;20429;-76
2023/02/04 09:29:32;;;;;;;19.67;5.40;;;;;;;;;;4947027;28;20445;-75
2023/02/04 09:31:58;;;;;;;24.50;5.93;;;;;;;;;;4947206;28;20468;-75
2023/02/04 09:34:24;;;;;;;16.27;5.07;;;;;;;;;;4949643;28;20466;-75
2023/02/04 09:36:50;;;;;;;15.30;4.10;;;;;;;;;;4949536;28;20477;-74
2023/02/04 09:39:16;;;;;;;22.67;7.50;;;;;;;;;;4928252;29;20442;-76
2023/02/04 09:41:42;;;;;;;17.67;5.80;;;;;;;;;;4952547;28;20434;-74
2023/02/04 09:44:19;;;;;;;20.60;5.87;;;;;;;;;;4948054;28;20525;-76
2023/02/04 09:46:49;;;;;;;20.93;6.20;;;;;;;;;;4948834;29;20420;-76
2023/02/04 09:49:16;;;;;;;19.70;6.50;;;;;;;;;;4945810;28;20426;-76
2023/02/04 09:51:42;;;;;;;21.87;6.70;;;;;;;;;;4948864;29;20433;-76
2023/02/04 09:54:11;;;;;;;14.90;5.57;;;;;;;;;;4953306;28;20690;-76
2023/02/04 09:56:37;;;;;;;25.40;7.20;;;;;;;;;;4949492;28;20438;-76
2023/02/04 09:59:04;;;;;;;20.77;6.40;;;;;;;;;;4955514;28;20504;-75
2023/02/04 10:01:30;;;;;;;16.53;6.87;;;;;;;;;;4946756;29;20434;-76
2023/02/04 10:04:00;;;;;;;22.03;7.80;;;;;;;;;;4943996;28;20455;-75
2023/02/04 10:06:25;;;;;;;33.30;8.40;;;;;;;;;;4948086;28;20750;-76
2023/02/04 10:08:52;;;;;;;21.23;6.10;;;;;;;;;;4947997;28;20458;-75
2023/02/04 10:11:19;;;;;;;19.40;7.30;;;;;;;;;;4961137;28;20695;-74
2023/02/04 10:13:49;;;;;;;19.70;8.23;;;;;;;;;;4950611;28;20961;-76
2023/02/04 10:16:17;;;;;;;12.77;6.77;;;;;;;;;;4957171;28;20846;-76
2023/02/04 10:18:43;;;;;;;24.50;7.10;;;;;;;;;;4953784;28;20500;-75
2023/02/04 10:21:15;;;;;;;25.27;10.90;;;;;;;;;;4942168;28;20449;-75
2023/02/04 10:23:41;;;;;;;25.83;8.90;;;;;;;;;;4961707;28;20984;-75
2023/02/04 10:26:10;;;;;;;22.97;8.17;;;;;;;;;;4958738;28;20437;-75
2023/02/04 10:28:36;;;;;;;19.47;9.67;;;;;;;;;;4956312;28;20516;-76
2023/02/04 10:31:03;;;;;;;29.13;9.37;;;;;;;;;;4946333;28;20462;-75
2023/02/04 10:33:30;;;;;;;16.50;7.30;;;;;;;;;;4949215;28;20465;-76
2023/02/04 10:35:56;;;;;;;25.20;8.90;;;;;;;;;;4951002;28;20434;-75
2023/02/04 10:38:22;;;;;;;20.80;9.17;;;;;;;;;;4951932;28;20528;-75
2023/02/04 10:40:59;;;;;;;18.83;7.20;;;;;;;;;;4948390;28;20426;-76
2023/02/04 10:43:25;;;;;;;17.97;8.80;;;;;;;;;;4945878;28;20441;-76
2023/02/04 10:45:55;;;;;;;18.63;8.13;;;;;;;;;;4951799;28;20886;-76
2023/02/04 10:48:21;;;;;;;19.40;8.43;;;;;;;;;;4945028;28;20446;-75
2023/02/04 10:50:48;;;;;;;17.20;7.63;;;;;;;;;;4948970;28;20538;-75
2023/02/04 10:56:14;;;;;;;25.40;11.20;;;;;;;;;;4947310;29;20466;-76
2023/02/04 10:58:40;;;;;;;29.27;8.40;;;;;;;;;;4949951;28;20438;-76
2023/02/04 11:01:14;;;;;;;23.17;9.77;;;;;;;;;;4948871;28;20481;-77
2023/02/04 11:03:41;;;;;;;22.53;8.53;;;;;;;;;;4947725;28;20533;-77
2023/02/04 11:06:12;;;;;;;29.20;9.33;;;;;;;;;;4955012;28;20430;-76
2023/02/04 11:08:38;;;;;;;16.63;9.27;;;;;;;;;;4944883;28;20516;-76
2023/02/04 11:11:08;;;;;;;25.73;8.60;;;;;;;;;;4952780;28;20418;-76
2023/02/04 11:13:41;;;;;;;26.67;9.23;;;;;;;;;;4942957;28;20478;-76
2023/02/04 11:16:13;;;;;;;17.53;7.90;;;;;;;;;;4929261;28;20455;-77
2023/02/04 11:18:55;;;;;;;15.50;8.70;;;;;;;;;;4944843;28;20826;-78
2023/02/04 11:21:34;;;;;;;25.93;8.00;;;;;;;;;;4949170;28;20840;-76
2023/02/04 11:24:06;;;;;;;22.13;9.23;;;;;;;;;;4948040;28;20933;-77
2023/02/04 11:27:30;;;;;;;20.30;9.03;;;;;;;;;;4944317;28;20442;-82
2023/02/04 11:30:05;;;;;;;15.93;9.13;;;;;;;;;;4847106;29;20443;-76
2023/02/04 11:32:31;;;;;;;18.50;9.50;;;;;;;;;;4942429;29;20469;-77
2023/02/04 11:35:08;;;;;;;24.43;8.60;;;;;;;;;;4938369;28;20884;-77
2023/02/04 11:37:35;;;;;;;22.53;8.60;;;;;;;;;;4945789;29;20932;-77
2023/02/04 11:40:08;;;;;;;18.60;9.63;;;;;;;;;;4952365;28;20976;-78
2023/02/04 11:42:41;;;;;;;15.80;8.23;;;;;;;;;;4942384;28;20469;-78
2023/02/04 11:45:15;;;;;;;14.70;8.50;;;;;;;;;;4939088;28;20497;-76
2023/02/04 11:47:42;;;;;;;26.03;8.00;;;;;;;;;;4936367;29;20910;-76
2023/02/04 11:50:17;;;;;;;19.13;7.97;;;;;;;;;;4945663;28;20543;-76
2023/02/04 11:52:43;;;;;;;25.67;9.90;;;;;;;;;;4948529;28;20992;-76
2023/02/04 11:55:09;;;;;;;18.83;8.50;;;;;;;;;;4951919;28;20449;-77
2023/02/04 11:57:42;;;;;;;22.17;9.87;;;;;;;;;;4946453;28;20848;-78
2023/02/04 12:00:17;;;;;;;29.93;10.90;;;;;;;;;;4947241;28;20891;-76
2023/02/04 12:02:47;;;;;;;27.13;12.67;;;;;;;;;;4929286;29;20978;-76
2023/02/04 12:05:15;;;;;;;28.23;11.67;;;;;;;;;;4954008;28;20465;-76
2023/02/04 12:07:42;;;;;;;29.73;12.90;;;;;;;;;;4944913;28;20445;-76
2023/02/04 12:10:17;;;;;;;37.40;11.17;;;;;;;;;;4944618;28;20437;-76
2023/02/04 12:12:44;;;;;;;18.00;11.80;;;;;;;;;;4940027;29;20513;-76
2023/02/04 12:15:15;;;;;;;23.53;10.70;;;;;;;;;;4954182;28;20465;-77
2023/02/04 12:17:44;;;;;;;30.47;12.40;;;;;;;;;;4950218;28;20525;-77
2023/02/04 12:20:11;;;;;;;30.23;13.10;;;;;;;;;;4949774;28;20542;-76
2023/02/04 12:22:37;;;;;;;25.30;12.23;;;;;;;;;;4957568;28;20541;-74
2023/02/04 12:25:04;;;;;;;24.80;13.10;;;;;;;;;;4924942;29;20493;-76
2023/02/04 12:27:30;;;;;;;37.87;14.50;;;;;;;;;;4933184;29;20438;-77
2023/02/04 12:29:56;;;;;;;33.37;16.07;;;;;;;;;;4942119;28;20448;-76
2023/02/04 12:32:22;;;;;;;29.27;16.70;;;;;;;;;;4946494;28;20434;-77
2023/02/04 12:34:48;;;;;;;32.30;17.67;;;;;;;;;;4940138;28;20775;-78
2023/02/04 12:37:14;;;;;;;35.60;16.70;;;;;;;;;;4941325;28;20598;-76
2023/02/04 12:39:40;;;;;;;39.53;19.50;;;;;;;;;;4940133;28;21258;-77
2023/02/04 12:42:06;;;;;;;42.33;22.30;;;;;;;;;;4937255;28;20433;-76
2023/02/04 12:44:34;;;;;;;41.60;18.27;;;;;;;;;;4926975;28;20454;-75
2023/02/04 12:47:00;;;;;;;38.30;20.57;;;;;;;;;;4946177;28;20461;-76
2023/02/04 12:49:26;;;;;;;50.13;20.50;;;;;;;;;;4931408;28;20469;-76
2023/02/04 12:51:52;;;;;;;37.53;19.20;;;;;;;;;;4941485;28;21019;-75
2023/02/04 12:54:26;;;;;;;42.27;21.40;;;;;;;;;;4933650;29;21025;-75
2023/02/04 12:56:57;;;;;;;44.67;22.17;;;;;;;;;;4941092;29;20429;-76
2023/02/04 12:59:24;;;;;;;37.70;21.90;;;;;;;;;;4939218;28;20438;-75
2023/02/04 13:01:50;;;;;;;41.87;19.30;;;;;;;;;;4948611;28;20460;-76
2023/02/04 13:04:16;;;;;;;45.80;19.07;;;;;;;;;;4956259;28;21109;-76
2023/02/04 13:06:42;;;;;;;44.30;19.70;;;;;;;;;;4950675;28;20450;-77
2023/02/04 13:09:08;;;;;;;38.27;20.10;;;;;;;;;;4953412;28;20437;-76
2023/02/04 13:11:34;;;;;;;32.80;19.03;;;;;;;;;;4949257;28;20525;-77
2023/02/04 13:14:00;;;;;;;35.83;18.00;;;;;;;;;;4951472;28;20479;-77
2023/02/04 13:16:26;;;;;;;36.47;18.13;;;;;;;;;;4932637;29;20454;-76
2023/02/04 13:18:52;;;;;;;37.77;17.53;;;;;;;;;;4939773;28;20481;-76
2023/02/04 13:21:18;;;;;;;33.37;15.20;;;;;;;;;;4927268;29;20552;-75
2023/02/04 13:23:44;;;;;;;29.87;17.97;;;;;;;;;;4949249;28;20509;-78
2023/02/04 13:26:10;;;;;;;32.37;17.90;;;;;;;;;;4953315;28;20429;-76
2023/02/04 13:28:36;;;;;;;27.50;15.90;;;;;;;;;;4953795;28;20453;-76
2023/02/04 13:31:02;;;;;;;29.63;14.93;;;;;;;;;;4949831;28;20517;-76
2023/02/04 13:33:28;;;;;;;38.53;17.10;;;;;;;;;;4952069;28;20465;-76
2023/02/04 13:35:54;;;;;;;27.37;15.30;;;;;;;;;;4951586;28;20481;-77
2023/02/04 13:38:20;;;;;;;29.13;15.30;;;;;;;;;;4948438;28;20442;-78
2023/02/04 13:40:46;;;;;;;25.83;15.13;;;;;;;;;;4949341;28;20434;-76
2023/02/04 13:43:12;;;;;;;21.30;15.50;;;;;;;;;;4951296;28;20446;-79
2023/02/04 13:45:39;;;;;;;23.10;14.37;;;;;;;;;;4948689;28;20457;-75
2023/02/04 13:48:05;;;;;;;27.80;16.27;;;;;;;;;;4948601;28;20441;-77
2023/02/04 13:50:31;;;;;;;23.83;13.97;;;;;;;;;;4951692;28;20516;-77
2023/02/04 13:52:57;;;;;;;31.53;15.23;;;;;;;;;;4944670;28;20472;-75
2023/02/04 13:55:23;;;;;;;28.80;15.47;;;;;;;;;;4953021;28;20437;-75
2023/02/04 13:57:49;;;;;;;25.60;15.27;;;;;;;;;;4952872;28;20433;-76
2023/02/04 14:00:15;;;;;;;22.77;13.10;;;;;;;;;;4950656;28;20487;-76
2023/02/04 14:02:41;;;;;;;26.07;13.10;;;;;;;;;;4961437;28;20425;-76
2023/02/04 14:05:08;;;;;;;24.47;13.00;;;;;;;;;;4949315;28;20517;-77
2023/02/04 14:07:36;;;;;;;29.63;14.53;;;;;;;;;;4951048;28;20477;-77
2023/02/04 14:10:02;;;;;;;26.57;13.80;;;;;;;;;;4943966;29;21120;-76
2023/02/04 14:12:28;;;;;;;20.90;12.67;;;;;;;;;;4947674;28;20460;-76
2023/02/04 14:14:55;;;;;;;25.13;12.50;;;;;;;;;;4936801;29;20414;-76
2023/02/04 14:17:23;;;;;;;19.43;12.17;;;;;;;;;;4932548;29;20442;-77
2023/02/04 14:19:49;;;;;;;24.60;12.57;;;;;;;;;;4946516;29;20553;-77
2023/02/04 14:22:18;;;;;;;28.87;20.00;;;;;;;;;;4952245;28;20477;-76
2023/02/04 14:24:46;;;;;;;14.13;9.70;;;;;;;;;;4949898;28;20423;-79
2023/02/04 14:27:12;;;;;;;16.47;10.80;;;;;;;;;;4951363;28;20873;-76
2023/02/04 14:29:41;;;;;;;20.07;11.40;;;;;;;;;;4947812;28;20429;-76